sensor_id;sensor_type;location;lat;lon;timestamp;P1;durP1;ratioP1;P2;durP2;ratioP2
10491;SDS011;5293;51.464;-2.566;2023-04-08T00:00:05;11.27;;;6.67;;
10491;SDS011;5293;51.464;-2.566;2023-04-08T00:02:32;12.20;;;6.60;;
10491;SDS011;5293;51.464;-2.566;2023-04-08T00:04:58;10.07;;;5.93;;
10491;SDS011;5293;51.464;-2.566;2023-04-08T00:07:23;13.07;;;6.43;;
10491;SDS011;5293;51.464;-2.566;2023-04-08T00:09:49;12.33;;;6.07;;
10491;SDS011;5293;51.464;-2.566;2023-04-08T00:12:15;8.87;;;5.87;;
10491;SDS011;5293;51.464;-2.566;2023-04-08T00:14:41;11.80;;;5.83;;
10491;SDS011;5293;51.464;-2.566;2023-04-08T00:17:06;9.33;;;5.83;;
10491;SDS011;5293;51.464;-2.566;2023-04-08T00:19:32;10.63;;;5.60;;
10491;SDS011;5293;51.464;-2.566;2023-04-08T00:21:58;12.47;;;6.13;;
10491;SDS011;5293;51.464;-2.566;2023-04-08T00:24:24;8.80;;;5.00;;
10491;SDS011;5293;51.464;-2.566;2023-04-08T00:26:50;9.90;;;5.40;;
10491;SDS011;5293;51.464;-2.566;2023-04-08T00:29:16;10.13;;;5.63;;
10491;SDS011;5293;51.464;-2.566;2023-04-08T00:31:42;8.87;;;5.10;;
10491;SDS011;5293;51.464;-2.566;2023-04-08T00:34:07;11.00;;;5.13;;
10491;SDS011;5293;51.464;-2.566;2023-04-08T00:36:33;8.20;;;4.60;;
10491;SDS011;5293;51.464;-2.566;2023-04-08T00:39:00;8.07;;;5.23;;
10491;SDS011;5293;51.464;-2.566;2023-04-08T00:41:26;8.07;;;5.83;;
10491;SDS011;5293;51.464;-2.566;2023-04-08T00:43:52;12.47;;;5.57;;
10491;SDS011;5293;51.464;-2.566;2023-04-08T00:46:18;8.77;;;5.17;;
10491;SDS011;5293;51.464;-2.566;2023-04-08T00:48:44;10.40;;;5.17;;
10491;SDS011;5293;51.464;-2.566;2023-04-08T00:51:10;12.00;;;6.60;;
10491;SDS011;5293;51.464;-2.566;2023-04-08T00:53:36;9.93;;;5.90;;
10491;SDS011;5293;51.464;-2.566;2023-04-08T00:56:02;11.10;;;5.87;;
10491;SDS011;5293;51.464;-2.566;2023-04-08T00:58:28;10.80;;;6.23;;
10491;SDS011;5293;51.464;-2.566;2023-04-08T01:00:57;11.13;;;5.40;;
10491;SDS011;5293;51.464;-2.566;2023-04-08T01:06:31;9.17;;;4.77;;
10491;SDS011;5293;51.464;-2.566;2023-04-08T01:09:07;9.50;;;4.93;;
10491;SDS011;5293;51.464;-2.566;2023-04-08T01:11:34;8.20;;;5.10;;
10491;SDS011;5293;51.464;-2.566;2023-04-08T01:14:02;10.07;;;5.43;;
10491;SDS011;5293;51.464;-2.566;2023-04-08T01:16:30;10.80;;;4.73;;
10491;SDS011;5293;51.464;-2.566;2023-04-08T01:18:56;13.20;;;5.70;;
10491;SDS011;5293;51.464;-2.566;2023-04-08T01:21:22;8.60;;;5.10;;
10491;SDS011;5293;51.464;-2.566;2023-04-08T01:23:58;5.70;;;4.30;;
10491;SDS011;5293;51.464;-2.566;2023-04-08T01:26:30;7.97;;;4.60;;
10491;SDS011;5293;51.464;-2.566;2023-04-08T01:28:57;8.57;;;4.47;;
10491;SDS011;5293;51.464;-2.566;2023-04-08T01:31:25;7.00;;;4.10;;
10491;SDS011;5293;51.464;-2.566;2023-04-08T01:33:52;8.70;;;4.13;;
10491;SDS011;5293;51.464;-2.566;2023-04-08T01:36:19;6.07;;;3.80;;
10491;SDS011;5293;51.464;-2.566;2023-04-08T01:38:47;4.80;;;3.40;;
10491;SDS011;5293;51.464;-2.566;2023-04-08T01:41:14;7.60;;;3.57;;
10491;SDS011;5293;51.464;-2.566;2023-04-08T01:43:42;6.53;;;4.20;;
10491;SDS011;5293;51.464;-2.566;2023-04-08T01:46:09;6.40;;;3.77;;
10491;SDS011;5293;51.464;-2.566;2023-04-08T01:48:36;8.53;;;3.83;;
10491;SDS011;5293;51.464;-2.566;2023-04-08T01:51:03;7.23;;;3.93;;
10491;SDS011;5293;51.464;-2.566;2023-04-08T01:53:30;6.03;;;4.30;;
10491;SDS011;5293;51.464;-2.566;2023-04-08T01:56:00;6.27;;;4.00;;
10491;SDS011;5293;51.464;-2.566;2023-04-08T01:58:30;6.43;;;3.87;;
10491;SDS011;5293;51.464;-2.566;2023-04-08T02:01:02;5.33;;;4.13;;
10491;SDS011;5293;51.464;-2.566;2023-04-08T02:03:34;7.70;;;3.77;;
10491;SDS011;5293;51.464;-2.566;2023-04-08T02:06:00;5.83;;;4.13;;
10491;SDS011;5293;51.464;-2.566;2023-04-08T02:08:26;7.87;;;3.90;;
10491;SDS011;5293;51.464;-2.566;2023-04-08T02:10:51;6.67;;;4.13;;
10491;SDS011;5293;51.464;-2.566;2023-04-08T02:13:17;7.23;;;4.03;;
10491;SDS011;5293;51.464;-2.566;2023-04-08T02:15:43;9.63;;;3.80;;
10491;SDS011;5293;51.464;-2.566;2023-04-08T02:18:16;6.40;;;4.07;;
10491;SDS011;5293;51.464;-2.566;2023-04-08T02:21:00;7.77;;;4.23;;
10491;SDS011;5293;51.464;-2.566;2023-04-08T02:23:48;7.27;;;4.03;;
10491;SDS011;5293;51.464;-2.566;2023-04-08T02:26:15;7.27;;;4.03;;
10491;SDS011;5293;51.464;-2.566;2023-04-08T02:28:43;6.43;;;4.03;;
10491;SDS011;5293;51.464;-2.566;2023-04-08T02:31:10;7.10;;;4.03;;
10491;SDS011;5293;51.464;-2.566;2023-04-08T02:33:40;5.77;;;3.87;;
10491;SDS011;5293;51.464;-2.566;2023-04-08T02:36:06;8.57;;;5.20;;
10491;SDS011;5293;51.464;-2.566;2023-04-08T02:38:33;10.27;;;5.33;;
10491;SDS011;5293;51.464;-2.566;2023-04-08T02:40:59;11.20;;;5.30;;
10491;SDS011;5293;51.464;-2.566;2023-04-08T02:43:25;8.77;;;5.27;;
10491;SDS011;5293;51.464;-2.566;2023-04-08T02:45:56;11.43;;;5.93;;
10491;SDS011;5293;51.464;-2.566;2023-04-08T02:48:23;9.20;;;5.60;;
10491;SDS011;5293;51.464;-2.566;2023-04-08T02:50:48;10.20;;;5.70;;
10491;SDS011;5293;51.464;-2.566;2023-04-08T02:53:14;8.43;;;5.03;;
10491;SDS011;5293;51.464;-2.566;2023-04-08T02:55:40;9.57;;;5.00;;
10491;SDS011;5293;51.464;-2.566;2023-04-08T02:58:05;5.03;;;4.43;;
10491;SDS011;5293;51.464;-2.566;2023-04-08T03:00:31;8.83;;;4.90;;
10491;SDS011;5293;51.464;-2.566;2023-04-08T03:02:57;10.00;;;4.60;;
10491;SDS011;5293;51.464;-2.566;2023-04-08T03:05:22;7.27;;;4.73;;
10491;SDS011;5293;51.464;-2.566;2023-04-08T03:07:48;9.43;;;5.63;;
10491;SDS011;5293;51.464;-2.566;2023-04-08T03:10:14;10.77;;;5.13;;
10491;SDS011;5293;51.464;-2.566;2023-04-08T03:12:40;12.80;;;5.00;;
10491;SDS011;5293;51.464;-2.566;2023-04-08T03:15:05;11.13;;;5.50;;
10491;SDS011;5293;51.464;-2.566;2023-04-08T03:17:31;12.87;;;5.97;;
10491;SDS011;5293;51.464;-2.566;2023-04-08T03:19:58;6.20;;;4.67;;
10491;SDS011;5293;51.464;-2.566;2023-04-08T03:22:31;11.77;;;5.63;;
10491;SDS011;5293;51.464;-2.566;2023-04-08T03:24:57;10.67;;;5.63;;
10491;SDS011;5293;51.464;-2.566;2023-04-08T03:27:23;8.43;;;5.30;;
10491;SDS011;5293;51.464;-2.566;2023-04-08T03:29:48;14.57;;;5.40;;
10491;SDS011;5293;51.464;-2.566;2023-04-08T03:32:14;10.87;;;5.50;;
10491;SDS011;5293;51.464;-2.566;2023-04-08T03:34:40;10.50;;;5.43;;
10491;SDS011;5293;51.464;-2.566;2023-04-08T03:37:05;9.23;;;5.60;;
10491;SDS011;5293;51.464;-2.566;2023-04-08T03:39:32;10.10;;;5.57;;
10491;SDS011;5293;51.464;-2.566;2023-04-08T03:41:57;8.90;;;5.77;;
10491;SDS011;5293;51.464;-2.566;2023-04-08T03:44:25;12.30;;;5.17;;
10491;SDS011;5293;51.464;-2.566;2023-04-08T03:46:51;10.17;;;5.53;;
10491;SDS011;5293;51.464;-2.566;2023-04-08T03:49:17;8.60;;;5.23;;
10491;SDS011;5293;51.464;-2.566;2023-04-08T03:51:42;9.20;;;5.63;;
10491;SDS011;5293;51.464;-2.566;2023-04-08T03:54:08;7.33;;;5.13;;
10491;SDS011;5293;51.464;-2.566;2023-04-08T03:56:34;10.40;;;5.47;;
10491;SDS011;5293;51.464;-2.566;2023-04-08T03:58:59;7.13;;;4.80;;
10491;SDS011;5293;51.464;-2.566;2023-04-08T04:01:25;8.53;;;4.43;;
10491;SDS011;5293;51.464;-2.566;2023-04-08T04:03:51;5.03;;;3.53;;
10491;SDS011;5293;51.464;-2.566;2023-04-08T04:06:16;5.80;;;3.60;;
10491;SDS011;5293;51.464;-2.566;2023-04-08T04:08:42;8.00;;;4.30;;
10491;SDS011;5293;51.464;-2.566;2023-04-08T04:11:08;7.43;;;4.03;;
10491;SDS011;5293;51.464;-2.566;2023-04-08T04:13:33;5.93;;;3.73;;
10491;SDS011;5293;51.464;-2.566;2023-04-08T04:16:02;5.77;;;3.43;;
10491;SDS011;5293;51.464;-2.566;2023-04-08T04:18:28;6.83;;;4.07;;
10491;SDS011;5293;51.464;-2.566;2023-04-08T04:20:53;5.13;;;3.80;;
10491;SDS011;5293;51.464;-2.566;2023-04-08T04:23:19;4.87;;;3.57;;
10491;SDS011;5293;51.464;-2.566;2023-04-08T04:25:45;5.97;;;3.53;;
10491;SDS011;5293;51.464;-2.566;2023-04-08T04:28:11;6.80;;;3.67;;
10491;SDS011;5293;51.464;-2.566;2023-04-08T04:30:37;5.53;;;3.73;;
10491;SDS011;5293;51.464;-2.566;2023-04-08T04:33:03;4.53;;;3.67;;
10491;SDS011;5293;51.464;-2.566;2023-04-08T04:35:29;6.60;;;4.33;;
10491;SDS011;5293;51.464;-2.566;2023-04-08T04:37:55;4.73;;;3.40;;
10491;SDS011;5293;51.464;-2.566;2023-04-08T04:40:20;5.47;;;3.67;;
10491;SDS011;5293;51.464;-2.566;2023-04-08T04:42:46;6.13;;;3.80;;
10491;SDS011;5293;51.464;-2.566;2023-04-08T04:45:12;7.10;;;3.90;;
10491;SDS011;5293;51.464;-2.566;2023-04-08T04:47:38;5.83;;;3.53;;
10491;SDS011;5293;51.464;-2.566;2023-04-08T04:50:04;6.43;;;3.87;;
10491;SDS011;5293;51.464;-2.566;2023-04-08T04:52:30;7.53;;;3.90;;
10491;SDS011;5293;51.464;-2.566;2023-04-08T04:54:56;7.13;;;3.73;;
10491;SDS011;5293;51.464;-2.566;2023-04-08T04:57:22;6.40;;;3.73;;
10491;SDS011;5293;51.464;-2.566;2023-04-08T04:59:48;7.13;;;3.83;;
10491;SDS011;5293;51.464;-2.566;2023-04-08T05:02:13;10.73;;;6.73;;
10491;SDS011;5293;51.464;-2.566;2023-04-08T05:04:39;12.90;;;6.77;;
10491;SDS011;5293;51.464;-2.566;2023-04-08T05:07:05;8.37;;;5.03;;
10491;SDS011;5293;51.464;-2.566;2023-04-08T05:09:30;6.07;;;3.90;;
10491;SDS011;5293;51.464;-2.566;2023-04-08T05:11:56;5.03;;;3.43;;
10491;SDS011;5293;51.464;-2.566;2023-04-08T05:14:22;9.67;;;3.90;;
10491;SDS011;5293;51.464;-2.566;2023-04-08T05:16:48;8.63;;;3.70;;
10491;SDS011;5293;51.464;-2.566;2023-04-08T05:19:13;6.73;;;3.67;;
10491;SDS011;5293;51.464;-2.566;2023-04-08T05:21:39;6.67;;;3.70;;
10491;SDS011;5293;51.464;-2.566;2023-04-08T05:24:05;8.57;;;4.17;;
10491;SDS011;5293;51.464;-2.566;2023-04-08T05:26:31;5.60;;;4.10;;
10491;SDS011;5293;51.464;-2.566;2023-04-08T05:28:57;6.03;;;3.90;;
10491;SDS011;5293;51.464;-2.566;2023-04-08T05:31:23;5.37;;;3.97;;
10491;SDS011;5293;51.464;-2.566;2023-04-08T05:33:49;6.77;;;4.30;;
10491;SDS011;5293;51.464;-2.566;2023-04-08T05:36:14;5.10;;;3.80;;
10491;SDS011;5293;51.464;-2.566;2023-04-08T05:38:40;6.80;;;4.10;;
10491;SDS011;5293;51.464;-2.566;2023-04-08T05:41:09;5.77;;;3.97;;
10491;SDS011;5293;51.464;-2.566;2023-04-08T05:43:35;6.60;;;4.30;;
10491;SDS011;5293;51.464;-2.566;2023-04-08T05:46:07;7.87;;;4.10;;
10491;SDS011;5293;51.464;-2.566;2023-04-08T05:48:33;4.47;;;3.60;;
10491;SDS011;5293;51.464;-2.566;2023-04-08T05:51:00;8.00;;;3.83;;
10491;SDS011;5293;51.464;-2.566;2023-04-08T05:53:26;6.33;;;3.67;;
10491;SDS011;5293;51.464;-2.566;2023-04-08T05:55:51;12.63;;;5.77;;
10491;SDS011;5293;51.464;-2.566;2023-04-08T05:58:17;11.40;;;5.73;;
10491;SDS011;5293;51.464;-2.566;2023-04-08T06:00:43;9.77;;;5.30;;
10491;SDS011;5293;51.464;-2.566;2023-04-08T06:03:08;12.30;;;6.13;;
10491;SDS011;5293;51.464;-2.566;2023-04-08T06:05:34;11.63;;;6.03;;
10491;SDS011;5293;51.464;-2.566;2023-04-08T06:08:00;13.23;;;5.57;;
10491;SDS011;5293;51.464;-2.566;2023-04-08T06:10:25;13.33;;;5.97;;
10491;SDS011;5293;51.464;-2.566;2023-04-08T06:12:51;7.00;;;5.30;;
10491;SDS011;5293;51.464;-2.566;2023-04-08T06:15:17;10.30;;;5.57;;
10491;SDS011;5293;51.464;-2.566;2023-04-08T06:17:42;12.37;;;5.40;;
10491;SDS011;5293;51.464;-2.566;2023-04-08T06:20:08;8.17;;;4.83;;
10491;SDS011;5293;51.464;-2.566;2023-04-08T06:22:34;7.93;;;5.43;;
10491;SDS011;5293;51.464;-2.566;2023-04-08T06:25:00;11.73;;;5.77;;
10491;SDS011;5293;51.464;-2.566;2023-04-08T06:27:26;9.30;;;4.97;;
10491;SDS011;5293;51.464;-2.566;2023-04-08T06:29:52;8.13;;;4.47;;
10491;SDS011;5293;51.464;-2.566;2023-04-08T06:32:19;7.37;;;4.80;;
10491;SDS011;5293;51.464;-2.566;2023-04-08T06:34:45;5.33;;;4.67;;
10491;SDS011;5293;51.464;-2.566;2023-04-08T06:37:12;9.87;;;4.80;;
10491;SDS011;5293;51.464;-2.566;2023-04-08T06:39:37;6.87;;;4.43;;
10491;SDS011;5293;51.464;-2.566;2023-04-08T06:42:03;8.00;;;4.80;;
10491;SDS011;5293;51.464;-2.566;2023-04-08T06:44:29;8.57;;;4.60;;
10491;SDS011;5293;51.464;-2.566;2023-04-08T06:46:54;7.93;;;4.17;;
10491;SDS011;5293;51.464;-2.566;2023-04-08T06:49:20;9.47;;;4.90;;
10491;SDS011;5293;51.464;-2.566;2023-04-08T06:51:46;7.30;;;4.37;;
10491;SDS011;5293;51.464;-2.566;2023-04-08T06:54:11;7.03;;;4.47;;
10491;SDS011;5293;51.464;-2.566;2023-04-08T06:56:37;7.40;;;4.40;;
10491;SDS011;5293;51.464;-2.566;2023-04-08T06:59:03;6.40;;;4.13;;
10491;SDS011;5293;51.464;-2.566;2023-04-08T07:01:29;6.17;;;4.50;;
10491;SDS011;5293;51.464;-2.566;2023-04-08T07:03:56;5.83;;;3.70;;
10491;SDS011;5293;51.464;-2.566;2023-04-08T07:06:22;5.87;;;3.43;;
10491;SDS011;5293;51.464;-2.566;2023-04-08T07:08:47;11.87;;;4.30;;
10491;SDS011;5293;51.464;-2.566;2023-04-08T07:11:13;8.73;;;4.17;;
10491;SDS011;5293;51.464;-2.566;2023-04-08T07:13:39;12.23;;;3.97;;
10491;SDS011;5293;51.464;-2.566;2023-04-08T07:16:05;7.77;;;4.03;;
10491;SDS011;5293;51.464;-2.566;2023-04-08T07:18:31;8.97;;;4.10;;
10491;SDS011;5293;51.464;-2.566;2023-04-08T07:20:57;6.23;;;3.87;;
10491;SDS011;5293;51.464;-2.566;2023-04-08T07:23:24;9.23;;;4.03;;
10491;SDS011;5293;51.464;-2.566;2023-04-08T07:25:51;6.90;;;3.57;;
10491;SDS011;5293;51.464;-2.566;2023-04-08T07:28:18;5.37;;;3.23;;
10491;SDS011;5293;51.464;-2.566;2023-04-08T07:30:44;4.33;;;3.13;;
10491;SDS011;5293;51.464;-2.566;2023-04-08T07:33:10;6.83;;;3.50;;
10491;SDS011;5293;51.464;-2.566;2023-04-08T07:35:35;6.10;;;2.87;;
10491;SDS011;5293;51.464;-2.566;2023-04-08T07:38:01;5.03;;;3.13;;
10491;SDS011;5293;51.464;-2.566;2023-04-08T07:40:27;4.50;;;3.03;;
10491;SDS011;5293;51.464;-2.566;2023-04-08T07:42:54;3.67;;;3.00;;
10491;SDS011;5293;51.464;-2.566;2023-04-08T07:45:20;5.27;;;2.60;;
10491;SDS011;5293;51.464;-2.566;2023-04-08T07:47:45;3.87;;;3.07;;
10491;SDS011;5293;51.464;-2.566;2023-04-08T07:50:11;3.63;;;2.70;;
10491;SDS011;5293;51.464;-2.566;2023-04-08T07:52:37;4.97;;;2.60;;
10491;SDS011;5293;51.464;-2.566;2023-04-08T07:55:03;4.83;;;2.93;;
10491;SDS011;5293;51.464;-2.566;2023-04-08T07:57:29;5.50;;;3.53;;
10491;SDS011;5293;51.464;-2.566;2023-04-08T07:59:55;3.83;;;2.87;;
10491;SDS011;5293;51.464;-2.566;2023-04-08T08:02:23;6.03;;;3.30;;
10491;SDS011;5293;51.464;-2.566;2023-04-08T08:04:48;3.93;;;3.33;;
10491;SDS011;5293;51.464;-2.566;2023-04-08T08:07:14;5.87;;;3.10;;
10491;SDS011;5293;51.464;-2.566;2023-04-08T08:09:40;5.40;;;3.07;;
10491;SDS011;5293;51.464;-2.566;2023-04-08T08:12:06;5.17;;;2.50;;
10491;SDS011;5293;51.464;-2.566;2023-04-08T08:14:31;3.80;;;2.40;;
10491;SDS011;5293;51.464;-2.566;2023-04-08T08:16:57;3.73;;;2.50;;
10491;SDS011;5293;51.464;-2.566;2023-04-08T08:19:23;9.90;;;3.03;;
10491;SDS011;5293;51.464;-2.566;2023-04-08T08:21:48;5.77;;;2.43;;
10491;SDS011;5293;51.464;-2.566;2023-04-08T08:24:14;5.53;;;2.40;;
10491;SDS011;5293;51.464;-2.566;2023-04-08T08:26:40;8.07;;;2.87;;
10491;SDS011;5293;51.464;-2.566;2023-04-08T08:29:06;5.37;;;2.83;;
10491;SDS011;5293;51.464;-2.566;2023-04-08T08:31:33;5.07;;;3.00;;
10491;SDS011;5293;51.464;-2.566;2023-04-08T08:33:59;3.23;;;2.60;;
10491;SDS011;5293;51.464;-2.566;2023-04-08T08:36:24;3.83;;;2.60;;
10491;SDS011;5293;51.464;-2.566;2023-04-08T08:38:51;3.30;;;2.50;;
10491;SDS011;5293;51.464;-2.566;2023-04-08T08:41:18;4.23;;;3.03;;
10491;SDS011;5293;51.464;-2.566;2023-04-08T08:43:44;5.67;;;2.80;;
10491;SDS011;5293;51.464;-2.566;2023-04-08T08:46:10;6.07;;;2.77;;
10491;SDS011;5293;51.464;-2.566;2023-04-08T08:48:39;4.27;;;3.00;;
10491;SDS011;5293;51.464;-2.566;2023-04-08T08:51:08;6.90;;;3.33;;
10491;SDS011;5293;51.464;-2.566;2023-04-08T08:53:36;4.40;;;2.80;;
10491;SDS011;5293;51.464;-2.566;2023-04-08T08:56:02;4.77;;;2.93;;
10491;SDS011;5293;51.464;-2.566;2023-04-08T08:58:28;3.83;;;2.80;;
10491;SDS011;5293;51.464;-2.566;2023-04-08T09:00:54;3.77;;;2.40;;
10491;SDS011;5293;51.464;-2.566;2023-04-08T09:03:20;4.20;;;2.77;;
10491;SDS011;5293;51.464;-2.566;2023-04-08T09:05:48;3.80;;;2.83;;
10491;SDS011;5293;51.464;-2.566;2023-04-08T09:08:22;5.60;;;2.67;;
10491;SDS011;5293;51.464;-2.566;2023-04-08T09:10:54;5.03;;;2.50;;
10491;SDS011;5293;51.464;-2.566;2023-04-08T09:13:34;3.03;;;2.40;;
10491;SDS011;5293;51.464;-2.566;2023-04-08T09:16:04;4.37;;;2.90;;
10491;SDS011;5293;51.464;-2.566;2023-04-08T09:18:31;16.73;;;8.77;;
10491;SDS011;5293;51.464;-2.566;2023-04-08T09:21:04;3.97;;;2.87;;
10491;SDS011;5293;51.464;-2.566;2023-04-08T09:23:50;5.40;;;3.00;;
10491;SDS011;5293;51.464;-2.566;2023-04-08T09:26:20;4.40;;;2.50;;
10491;SDS011;5293;51.464;-2.566;2023-04-08T09:28:57;3.87;;;2.90;;
10491;SDS011;5293;51.464;-2.566;2023-04-08T09:31:38;3.73;;;2.53;;
10491;SDS011;5293;51.464;-2.566;2023-04-08T09:34:10;5.07;;;3.10;;
10491;SDS011;5293;51.464;-2.566;2023-04-08T09:36:37;4.53;;;2.50;;
10491;SDS011;5293;51.464;-2.566;2023-04-08T09:39:03;3.03;;;2.60;;
10491;SDS011;5293;51.464;-2.566;2023-04-08T09:41:31;6.13;;;2.77;;
10491;SDS011;5293;51.464;-2.566;2023-04-08T09:43:59;4.87;;;2.90;;
10491;SDS011;5293;51.464;-2.566;2023-04-08T09:54:25;4.07;;;2.63;;
10491;SDS011;5293;51.464;-2.566;2023-04-08T09:57:09;6.23;;;2.73;;
10491;SDS011;5293;51.464;-2.566;2023-04-08T09:59:41;2.67;;;2.47;;
10491;SDS011;5293;51.464;-2.566;2023-04-08T10:02:15;5.67;;;2.93;;
10491;SDS011;5293;51.464;-2.566;2023-04-08T10:04:47;4.00;;;2.57;;
10491;SDS011;5293;51.464;-2.566;2023-04-08T10:07:17;4.97;;;2.73;;
10491;SDS011;5293;51.464;-2.566;2023-04-08T10:09:43;3.90;;;2.83;;
10491;SDS011;5293;51.464;-2.566;2023-04-08T10:12:09;5.33;;;3.13;;
10491;SDS011;5293;51.464;-2.566;2023-04-08T10:14:35;3.53;;;2.80;;
10491;SDS011;5293;51.464;-2.566;2023-04-08T10:19:50;8.13;;;3.13;;
10491;SDS011;5293;51.464;-2.566;2023-04-08T10:27:41;3.40;;;2.50;;
10491;SDS011;5293;51.464;-2.566;2023-04-08T10:32:52;3.43;;;2.40;;
10491;SDS011;5293;51.464;-2.566;2023-04-08T10:35:54;6.40;;;2.63;;
10491;SDS011;5293;51.464;-2.566;2023-04-08T10:38:17;3.43;;;2.60;;
10491;SDS011;5293;51.464;-2.566;2023-04-08T10:40:43;3.60;;;2.20;;
10491;SDS011;5293;51.464;-2.566;2023-04-08T10:43:10;5.10;;;2.70;;
10491;SDS011;5293;51.464;-2.566;2023-04-08T10:45:37;5.43;;;4.33;;
10491;SDS011;5293;51.464;-2.566;2023-04-08T10:48:23;4.13;;;2.60;;
10491;SDS011;5293;51.464;-2.566;2023-04-08T10:50:52;5.03;;;2.40;;
10491;SDS011;5293;51.464;-2.566;2023-04-08T10:53:23;3.03;;;1.80;;
10491;SDS011;5293;51.464;-2.566;2023-04-08T10:55:53;3.17;;;1.60;;
10491;SDS011;5293;51.464;-2.566;2023-04-08T10:58:47;2.33;;;2.00;;
10491;SDS011;5293;51.464;-2.566;2023-04-08T11:01:18;4.43;;;2.50;;
10491;SDS011;5293;51.464;-2.566;2023-04-08T11:03:44;4.07;;;2.00;;
10491;SDS011;5293;51.464;-2.566;2023-04-08T11:06:10;2.70;;;2.27;;
10491;SDS011;5293;51.464;-2.566;2023-04-08T11:08:36;7.70;;;2.60;;
10491;SDS011;5293;51.464;-2.566;2023-04-08T11:11:03;3.53;;;2.40;;
10491;SDS011;5293;51.464;-2.566;2023-04-08T11:13:32;2.77;;;2.57;;
10491;SDS011;5293;51.464;-2.566;2023-04-08T11:16:00;6.07;;;2.70;;
10491;SDS011;5293;51.464;-2.566;2023-04-08T11:18:28;3.73;;;2.60;;
10491;SDS011;5293;51.464;-2.566;2023-04-08T11:20:55;3.53;;;3.00;;
10491;SDS011;5293;51.464;-2.566;2023-04-08T11:23:23;5.90;;;2.47;;
10491;SDS011;5293;51.464;-2.566;2023-04-08T11:25:50;5.33;;;2.70;;
10491;SDS011;5293;51.464;-2.566;2023-04-08T11:28:16;4.37;;;3.00;;
10491;SDS011;5293;51.464;-2.566;2023-04-08T11:30:43;3.87;;;3.03;;
10491;SDS011;5293;51.464;-2.566;2023-04-08T11:33:09;3.30;;;3.00;;
10491;SDS011;5293;51.464;-2.566;2023-04-08T11:35:40;4.73;;;3.20;;
10491;SDS011;5293;51.464;-2.566;2023-04-08T11:38:07;5.37;;;3.23;;
10491;SDS011;5293;51.464;-2.566;2023-04-08T11:40:33;3.70;;;2.60;;
10491;SDS011;5293;51.464;-2.566;2023-04-08T11:42:59;4.13;;;2.70;;
10491;SDS011;5293;51.464;-2.566;2023-04-08T11:45:37;3.27;;;2.93;;
10491;SDS011;5293;51.464;-2.566;2023-04-08T11:48:10;3.00;;;2.70;;
10491;SDS011;5293;51.464;-2.566;2023-04-08T11:50:38;4.40;;;3.10;;
10491;SDS011;5293;51.464;-2.566;2023-04-08T11:53:15;4.20;;;2.60;;
10491;SDS011;5293;51.464;-2.566;2023-04-08T11:55:44;4.43;;;2.93;;
10491;SDS011;5293;51.464;-2.566;2023-04-08T11:58:10;5.13;;;2.77;;
10491;SDS011;5293;51.464;-2.566;2023-04-08T12:00:36;4.20;;;2.77;;
10491;SDS011;5293;51.464;-2.566;2023-04-08T12:03:02;4.57;;;2.37;;
10491;SDS011;5293;51.464;-2.566;2023-04-08T12:05:28;4.40;;;2.50;;
10491;SDS011;5293;51.464;-2.566;2023-04-08T12:07:54;4.37;;;2.43;;
10491;SDS011;5293;51.464;-2.566;2023-04-08T12:10:20;3.57;;;2.83;;
10491;SDS011;5293;51.464;-2.566;2023-04-08T12:12:46;4.90;;;2.90;;
10491;SDS011;5293;51.464;-2.566;2023-04-08T12:15:12;4.10;;;2.50;;
10491;SDS011;5293;51.464;-2.566;2023-04-08T12:17:37;3.00;;;2.70;;
10491;SDS011;5293;51.464;-2.566;2023-04-08T12:20:04;4.63;;;2.60;;
10491;SDS011;5293;51.464;-2.566;2023-04-08T12:22:30;3.40;;;3.10;;
10491;SDS011;5293;51.464;-2.566;2023-04-08T12:24:56;5.70;;;2.77;;
10491;SDS011;5293;51.464;-2.566;2023-04-08T12:27:22;4.87;;;2.90;;
10491;SDS011;5293;51.464;-2.566;2023-04-08T12:29:47;6.37;;;2.50;;
10491;SDS011;5293;51.464;-2.566;2023-04-08T12:32:14;2.47;;;2.20;;
10491;SDS011;5293;51.464;-2.566;2023-04-08T12:34:40;2.63;;;2.10;;
10491;SDS011;5293;51.464;-2.566;2023-04-08T12:37:05;3.37;;;2.27;;
10491;SDS011;5293;51.464;-2.566;2023-04-08T12:39:31;4.57;;;2.20;;
10491;SDS011;5293;51.464;-2.566;2023-04-08T12:41:57;3.87;;;1.90;;
10491;SDS011;5293;51.464;-2.566;2023-04-08T12:44:23;2.77;;;2.50;;
10491;SDS011;5293;51.464;-2.566;2023-04-08T12:46:49;4.30;;;2.40;;
10491;SDS011;5293;51.464;-2.566;2023-04-08T12:49:15;3.43;;;2.30;;
10491;SDS011;5293;51.464;-2.566;2023-04-08T12:51:41;2.50;;;2.07;;
10491;SDS011;5293;51.464;-2.566;2023-04-08T12:54:06;4.50;;;2.40;;
10491;SDS011;5293;51.464;-2.566;2023-04-08T12:56:32;2.93;;;2.40;;
10491;SDS011;5293;51.464;-2.566;2023-04-08T12:58:58;5.43;;;2.23;;
10491;SDS011;5293;51.464;-2.566;2023-04-08T13:01:25;2.90;;;2.13;;
10491;SDS011;5293;51.464;-2.566;2023-04-08T13:03:51;4.23;;;2.37;;
10491;SDS011;5293;51.464;-2.566;2023-04-08T13:06:16;3.07;;;2.60;;
10491;SDS011;5293;51.464;-2.566;2023-04-08T13:08:42;2.53;;;2.33;;
10491;SDS011;5293;51.464;-2.566;2023-04-08T13:11:08;4.63;;;2.87;;
10491;SDS011;5293;51.464;-2.566;2023-04-08T13:13:33;2.50;;;2.30;;
10491;SDS011;5293;51.464;-2.566;2023-04-08T13:16:00;3.23;;;2.20;;
10491;SDS011;5293;51.464;-2.566;2023-04-08T13:18:26;2.67;;;2.00;;
10491;SDS011;5293;51.464;-2.566;2023-04-08T13:20:52;3.23;;;2.50;;
10491;SDS011;5293;51.464;-2.566;2023-04-08T13:23:18;5.07;;;2.50;;
10491;SDS011;5293;51.464;-2.566;2023-04-08T13:25:45;5.10;;;2.63;;
10491;SDS011;5293;51.464;-2.566;2023-04-08T13:28:11;3.70;;;2.67;;
10491;SDS011;5293;51.464;-2.566;2023-04-08T13:30:37;4.60;;;2.70;;
10491;SDS011;5293;51.464;-2.566;2023-04-08T13:33:02;3.37;;;2.70;;
10491;SDS011;5293;51.464;-2.566;2023-04-08T13:35:28;4.33;;;2.70;;
10491;SDS011;5293;51.464;-2.566;2023-04-08T13:37:54;3.83;;;2.40;;
10491;SDS011;5293;51.464;-2.566;2023-04-08T13:40:20;2.77;;;2.37;;
10491;SDS011;5293;51.464;-2.566;2023-04-08T13:42:46;4.43;;;2.70;;
10491;SDS011;5293;51.464;-2.566;2023-04-08T13:45:12;6.00;;;2.57;;
10491;SDS011;5293;51.464;-2.566;2023-04-08T13:47:40;4.73;;;2.70;;
10491;SDS011;5293;51.464;-2.566;2023-04-08T13:50:06;4.87;;;2.97;;
10491;SDS011;5293;51.464;-2.566;2023-04-08T13:52:33;2.87;;;2.40;;
10491;SDS011;5293;51.464;-2.566;2023-04-08T13:54:58;3.53;;;2.10;;
10491;SDS011;5293;51.464;-2.566;2023-04-08T13:57:24;3.43;;;2.17;;
10491;SDS011;5293;51.464;-2.566;2023-04-08T13:59:50;2.37;;;2.10;;
10491;SDS011;5293;51.464;-2.566;2023-04-08T14:02:16;8.53;;;2.53;;
10491;SDS011;5293;51.464;-2.566;2023-04-08T14:04:41;4.40;;;2.53;;
10491;SDS011;5293;51.464;-2.566;2023-04-08T14:07:09;3.27;;;2.20;;
10491;SDS011;5293;51.464;-2.566;2023-04-08T14:09:36;5.23;;;3.13;;
10491;SDS011;5293;51.464;-2.566;2023-04-08T14:12:01;4.70;;;2.27;;
10491;SDS011;5293;51.464;-2.566;2023-04-08T14:14:27;3.87;;;2.40;;
10491;SDS011;5293;51.464;-2.566;2023-04-08T14:16:53;3.30;;;2.30;;
10491;SDS011;5293;51.464;-2.566;2023-04-08T14:19:18;2.17;;;1.97;;
10491;SDS011;5293;51.464;-2.566;2023-04-08T14:21:44;2.77;;;1.90;;
10491;SDS011;5293;51.464;-2.566;2023-04-08T14:24:10;3.33;;;2.27;;
10491;SDS011;5293;51.464;-2.566;2023-04-08T14:26:36;2.93;;;2.10;;
10491;SDS011;5293;51.464;-2.566;2023-04-08T14:29:02;3.53;;;2.47;;
10491;SDS011;5293;51.464;-2.566;2023-04-08T14:31:29;2.60;;;2.40;;
10491;SDS011;5293;51.464;-2.566;2023-04-08T14:33:56;3.97;;;2.13;;
10491;SDS011;5293;51.464;-2.566;2023-04-08T14:36:22;2.77;;;1.90;;
10491;SDS011;5293;51.464;-2.566;2023-04-08T14:38:48;3.43;;;2.03;;
10491;SDS011;5293;51.464;-2.566;2023-04-08T14:41:14;4.13;;;2.00;;
10491;SDS011;5293;51.464;-2.566;2023-04-08T14:43:40;3.37;;;2.10;;
10491;SDS011;5293;51.464;-2.566;2023-04-08T14:46:06;3.47;;;2.37;;
10491;SDS011;5293;51.464;-2.566;2023-04-08T14:48:31;2.97;;;2.07;;
10491;SDS011;5293;51.464;-2.566;2023-04-08T14:50:57;2.87;;;2.40;;
10491;SDS011;5293;51.464;-2.566;2023-04-08T14:53:24;4.90;;;2.10;;
10491;SDS011;5293;51.464;-2.566;2023-04-08T14:55:49;3.03;;;2.20;;
10491;SDS011;5293;51.464;-2.566;2023-04-08T14:58:15;2.43;;;1.90;;
10491;SDS011;5293;51.464;-2.566;2023-04-08T15:00:41;2.87;;;2.23;;
10491;SDS011;5293;51.464;-2.566;2023-04-08T15:03:09;6.50;;;2.77;;
10491;SDS011;5293;51.464;-2.566;2023-04-08T15:05:35;2.40;;;2.20;;